Terminal Aerodrome Forecast
Issued by NWS

Home | Current Version | Previous Version | Text Only | Print | Product List | Glossary On
Versions: 1 2 3 4 5 6 7 8 9 10 11 12 13 14 15
000
FTUS46 KLOX 101800 AAA
TAFWJF
TAF AMD
KWJF 101824Z 1018/1118 23010G20KT P6SM SKC
     FM102200 23022G30KT P6SM SKC
     FM110200 23014KT P6SM SKC
     FM111700 24010G20KT P6SM SKC=

USA.gov is the U.S. government's official web portal to all federal, state and local government web resources and services.